createdAt,value
2018-09-27T00:00:30.338Z,15.64
2018-09-27T00:01:15.954Z,15.71
2018-09-27T00:02:15.975Z,15.69
2018-09-27T00:03:16.001Z,15.74
2018-09-27T00:04:16.018Z,15.68
2018-09-27T00:05:16.044Z,15.69
2018-09-27T00:06:30.723Z,15.69
2018-09-27T00:07:15.827Z,15.71
2018-09-27T00:08:16.107Z,15.69
2018-09-27T00:09:16.129Z,15.76
2018-09-27T00:10:16.148Z,15.82
2018-09-27T00:11:15.913Z,15.74
2018-09-27T00:12:16.193Z,15.74
2018-09-27T00:13:16.216Z,15.72
2018-09-27T00:14:16.247Z,15.82
2018-09-27T00:15:15.998Z,15.84
2018-09-27T00:16:15.760Z,15.83
2018-09-27T00:17:30.958Z,15.76
2018-09-27T00:18:16.066Z,15.83
2018-09-27T00:19:16.347Z,15.76
2018-09-27T00:20:16.106Z,15.82
2018-09-27T00:21:31.048Z,15.89
2018-09-27T00:22:16.151Z,15.83
2018-09-27T00:23:16.170Z,15.87
2018-09-27T00:26:16.492Z,15.93
2018-09-27T00:27:16.273Z,15.9
2018-09-27T00:28:31.205Z,15.84
2018-09-27T00:29:31.221Z,15.9
2018-09-27T00:30:16.320Z,15.89
2018-09-27T00:31:16.606Z,15.84
2018-09-27T00:32:16.626Z,15.84
2018-09-27T00:33:16.647Z,15.9
2018-09-27T00:34:16.669Z,15.83
2018-09-27T00:35:16.687Z,15.97
2018-09-27T00:36:16.709Z,15.86
2018-09-27T00:37:16.731Z,15.86
2018-09-27T00:38:16.494Z,15.9
2018-09-27T00:40:16.797Z,16.01
2018-09-27T00:41:16.558Z,15.96
2018-09-27T00:42:16.838Z,15.87
2018-09-27T00:43:16.862Z,15.92
2018-09-27T00:44:16.628Z,15.94
2018-09-27T00:45:16.902Z,15.9
2018-09-27T00:46:16.678Z,15.94
2018-09-27T00:47:16.944Z,15.96
2018-09-27T00:48:16.968Z,15.96
2018-09-27T00:49:16.733Z,15.86
2018-09-27T00:50:17.012Z,15.84
2018-09-27T00:51:17.135Z,15.87
2018-09-27T00:52:16.793Z,15.92
2018-09-27T00:53:31.734Z,15.9
2018-09-27T00:54:16.893Z,15.97
2018-09-27T00:55:16.859Z,16
2018-09-27T00:57:17.165Z,15.9
2018-09-27T00:58:17.185Z,16.01
2018-09-27T00:59:17.262Z,15.93
2018-09-27T01:00:17.220Z,15.97
2018-09-27T01:01:17.244Z,16.02
2018-09-27T01:02:17.316Z,15.94
2018-09-27T01:03:17.290Z,15.92
2018-09-27T01:04:17.317Z,16.01
2018-09-27T01:05:17.075Z,16
2018-09-27T01:06:17.097Z,15.97
2018-09-27T01:07:17.374Z,15.97
2018-09-27T01:09:32.082Z,16
2018-09-27T01:10:17.441Z,15.96
2018-09-27T01:12:17.480Z,16.01
2018-09-27T01:13:17.508Z,16
2018-09-27T01:14:17.526Z,16
2018-09-27T01:15:17.552Z,15.97
2018-09-27T01:16:17.673Z,16.04
2018-09-27T01:17:17.593Z,15.93
2018-09-27T01:18:17.610Z,15.93
2018-09-27T01:19:17.637Z,16.01
2018-09-27T01:20:17.659Z,15.97
2018-09-27T01:21:17.677Z,15.96
2018-09-27T01:22:17.700Z,16.01
2018-09-27T01:23:17.719Z,16.01
2018-09-27T01:24:17.483Z,15.97
2018-09-27T01:25:32.424Z,16.01
2018-09-27T01:26:17.785Z,16.04
2018-09-27T01:27:17.548Z,16
2018-09-27T01:28:17.834Z,15.97
2018-09-27T01:29:17.852Z,16.01
2018-09-27T01:31:17.896Z,15.96
2018-09-27T01:32:17.661Z,16.05
2018-09-27T01:33:17.676Z,16.01
2018-09-27T01:34:17.700Z,16.01
2018-09-27T01:35:17.979Z,15.97
2018-09-27T01:36:17.746Z,16.09
2018-09-27T01:37:18.022Z,16.04
2018-09-27T01:38:17.786Z,16.02
2018-09-27T01:39:18.063Z,16.01
2018-09-27T01:40:17.832Z,16.01
2018-09-27T01:41:32.770Z,15.97
2018-09-27T01:42:18.130Z,15.96
2018-09-27T01:43:18.150Z,15.97
2018-09-27T01:44:18.175Z,16
2018-09-27T01:45:18.195Z,16.01
2018-09-27T01:46:18.217Z,16
2018-09-27T01:47:18.343Z,16.07
2018-09-27T01:48:18.003Z,15.97
2018-09-27T01:49:18.023Z,16.02
2018-09-27T01:50:18.062Z,15.96
2018-09-27T01:51:18.329Z,16.07
2018-09-27T01:52:18.359Z,16.01
2018-09-27T01:53:18.368Z,16.05
2018-09-27T01:54:18.444Z,15.96
2018-09-27T01:55:18.160Z,16
2018-09-27T01:56:33.098Z,16.02
2018-09-27T01:57:18.457Z,16.04
2018-09-27T01:58:18.478Z,16.04
2018-09-27T02:00:18.521Z,16.09
2018-09-27T02:01:18.283Z,16.04
2018-09-27T02:02:18.563Z,16.08
2018-09-27T02:03:18.584Z,15.97
2018-09-27T02:04:18.610Z,16.01
2018-09-27T02:05:33.288Z,15.97
2018-09-27T02:06:18.662Z,16
2018-09-27T02:07:18.670Z,15.97
2018-09-27T02:08:18.694Z,15.92
2018-09-27T02:09:18.715Z,15.97
2018-09-27T02:10:18.735Z,16.01
2018-09-27T02:11:18.766Z,16.02
2018-09-27T02:12:18.788Z,16.04
2018-09-27T02:13:18.854Z,16.01
2018-09-27T02:14:18.820Z,15.97
2018-09-27T02:15:18.845Z,16.01
2018-09-27T02:16:18.865Z,16.01
2018-09-27T02:17:18.888Z,15.9
2018-09-27T02:19:33.593Z,16
2018-09-27T02:20:18.692Z,15.97
2018-09-27T02:21:18.976Z,15.97
2018-09-27T02:22:19.006Z,15.94
2018-09-27T02:23:18.758Z,15.92
2018-09-27T02:24:19.152Z,15.93
2018-09-27T02:25:19.062Z,15.86
2018-09-27T02:26:19.083Z,15.89
2018-09-27T02:27:19.108Z,15.87
2018-09-27T02:28:33.784Z,15.86
2018-09-27T02:29:19.191Z,15.76
2018-09-27T02:30:19.194Z,15.76
2018-09-27T02:31:19.190Z,15.83
2018-09-27T02:32:19.211Z,15.71
2018-09-27T02:33:19.229Z,15.69
2018-09-27T02:34:19.259Z,15.72
2018-09-27T02:35:19.282Z,15.72
2018-09-27T02:36:19.306Z,15.72
2018-09-27T02:37:19.322Z,15.75
2018-09-27T02:38:19.491Z,15.75
2018-09-27T02:39:19.364Z,15.72
2018-09-27T02:40:19.391Z,15.57
2018-09-27T02:42:19.430Z,15.47
2018-09-27T02:43:19.453Z,15.41
2018-09-27T02:44:34.128Z,15.47
2018-09-27T02:45:19.495Z,15.35
2018-09-27T02:46:19.514Z,15.38
2018-09-27T02:47:19.279Z,15.36
2018-09-27T02:48:19.054Z,15.29
2018-09-27T02:49:19.572Z,15.43
2018-09-27T02:50:34.265Z,15.44
2018-09-27T02:51:19.631Z,15.41
2018-09-27T02:52:19.642Z,15.39
2018-09-27T02:53:19.402Z,15.46
2018-09-27T02:54:19.700Z,15.43
2018-09-27T02:55:19.712Z,15.47
2018-09-27T02:56:19.725Z,15.44
2018-09-27T02:57:19.753Z,15.44
2018-09-27T02:58:19.782Z,15.44
2018-09-27T02:59:19.892Z,15.46
2018-09-27T03:00:34.477Z,15.49
2018-09-27T03:01:19.838Z,15.43
2018-09-27T03:02:19.853Z,15.49
2018-09-27T03:03:19.889Z,15.44
2018-09-27T03:04:19.642Z,15.41
2018-09-27T03:05:19.921Z,15.49
2018-09-27T03:06:19.691Z,15.46
2018-09-27T03:07:19.962Z,15.44
2018-09-27T03:08:20.013Z,15.43
2018-09-27T03:09:19.747Z,15.44
2018-09-27T03:10:34.428Z,15.49
2018-09-27T03:11:20.051Z,15.53
2018-09-27T03:12:20.068Z,15.51
2018-09-27T03:13:34.764Z,15.47
2018-09-27T03:14:20.128Z,15.41
2018-09-27T03:15:20.132Z,15.41
2018-09-27T03:16:34.558Z,15.44
2018-09-27T03:17:20.178Z,15.39
2018-09-27T03:18:19.944Z,15.39
2018-09-27T03:19:20.220Z,15.46
2018-09-27T03:20:20.241Z,15.34
2018-09-27T03:21:20.294Z,15.38
2018-09-27T03:22:20.290Z,15.49
2018-09-27T03:23:20.310Z,15.44
2018-09-27T03:24:20.068Z,15.56
2018-09-27T03:25:20.355Z,15.6
2018-09-27T03:26:20.374Z,15.62
2018-09-27T03:27:20.490Z,15.6
2018-09-27T03:28:20.414Z,15.54
2018-09-27T03:29:20.434Z,15.57
2018-09-27T03:30:20.459Z,15.57
2018-09-27T03:31:35.140Z,15.53
2018-09-27T03:32:20.505Z,15.57
2018-09-27T03:33:20.525Z,15.56
2018-09-27T03:34:20.542Z,15.56
2018-09-27T03:35:20.755Z,15.62
2018-09-27T03:36:35.249Z,15.6
2018-09-27T03:37:20.608Z,15.57
2018-09-27T03:38:20.637Z,15.62
2018-09-27T03:39:20.392Z,15.49
2018-09-27T03:40:21.144Z,15.57
2018-09-27T03:41:20.722Z,15.53
2018-09-27T03:42:20.716Z,15.6
2018-09-27T03:43:20.735Z,15.57
2018-09-27T03:44:20.513Z,15.54
2018-09-27T03:45:20.780Z,15.65
2018-09-27T03:46:20.805Z,15.72
2018-09-27T03:47:20.563Z,15.69
2018-09-27T03:48:20.852Z,15.69
2018-09-27T03:49:20.609Z,15.67
2018-09-27T03:50:20.885Z,15.72
2018-09-27T03:51:20.913Z,15.68
2018-09-27T03:52:20.670Z,15.72
2018-09-27T03:53:20.949Z,15.69
2018-09-27T03:54:20.714Z,15.69
2018-09-27T03:55:20.990Z,15.71
2018-09-27T03:56:21.013Z,15.65
2018-09-27T03:57:20.781Z,15.69
2018-09-27T03:58:20.805Z,15.72
2018-09-27T04:00:20.841Z,15.72
2018-09-27T04:02:20.880Z,15.8
2018-09-27T04:03:35.837Z,15.8
2018-09-27T04:05:20.895Z,15.78
2018-09-27T04:06:20.974Z,15.72
2018-09-27T04:07:21.257Z,15.74
2018-09-27T04:08:21.292Z,15.74
2018-09-27T04:09:21.036Z,15.76
2018-09-27T04:10:21.056Z,15.78
2018-09-27T04:11:21.088Z,15.8
2018-09-27T04:12:21.360Z,15.87
2018-09-27T04:13:21.380Z,15.89
2018-09-27T04:14:21.141Z,15.83
2018-09-27T04:15:21.163Z,15.83
2018-09-27T04:16:21.446Z,15.86
2018-09-27T04:17:21.471Z,15.84
2018-09-27T04:18:21.227Z,15.8
2018-09-27T04:19:36.168Z,15.86
2018-09-27T04:20:21.280Z,15.92
2018-09-27T04:21:21.302Z,15.84
2018-09-27T04:24:21.363Z,15.83
2018-09-27T04:25:21.681Z,15.89
2018-09-27T04:26:21.144Z,15.9
2018-09-27T04:27:21.680Z,15.83
2018-09-27T04:28:36.367Z,15.83
2018-09-27T04:29:36.133Z,15.84
2018-09-27T04:30:21.743Z,15.82
2018-09-27T04:31:21.767Z,15.89
2018-09-27T04:32:21.791Z,15.84
2018-09-27T04:33:21.810Z,15.83
2018-09-27T04:34:21.834Z,15.83
2018-09-27T04:35:36.513Z,15.87
2018-09-27T04:36:21.871Z,15.96
2018-09-27T04:37:21.893Z,15.93
2018-09-27T04:38:21.659Z,15.83
2018-09-27T04:40:21.964Z,15.84
2018-09-27T04:41:21.980Z,15.89
2018-09-27T04:42:22.001Z,15.83
2018-09-27T04:43:22.023Z,15.9
2018-09-27T04:44:22.045Z,15.86
2018-09-27T04:45:22.068Z,15.86
2018-09-27T04:46:36.548Z,15.86
2018-09-27T04:47:22.115Z,15.93
2018-09-27T04:48:22.140Z,15.93
2018-09-27T04:49:21.897Z,15.94
2018-09-27T04:50:22.175Z,15.92
2018-09-27T04:51:36.906Z,16.01
2018-09-27T04:52:22.218Z,15.84
2018-09-27T04:53:22.244Z,15.94
2018-09-27T04:54:22.352Z,15.97
2018-09-27T04:55:22.284Z,15.83
2018-09-27T04:56:36.971Z,15.83
2018-09-27T04:57:22.324Z,15.92
2018-09-27T04:58:22.355Z,15.93
2018-09-27T04:59:22.377Z,15.86
2018-09-27T05:00:22.395Z,15.89
2018-09-27T05:01:22.414Z,15.9
2018-09-27T05:02:22.434Z,15.84
2018-09-27T05:03:22.458Z,15.94
2018-09-27T05:04:22.486Z,16
2018-09-27T05:05:22.511Z,15.92
2018-09-27T05:06:36.924Z,15.93
2018-09-27T05:07:22.550Z,15.97
2018-09-27T05:08:22.574Z,16.04
2018-09-27T05:09:22.597Z,15.93
2018-09-27T05:10:22.613Z,15.94
2018-09-27T05:11:22.633Z,16.04
2018-09-27T05:12:22.652Z,16.02
2018-09-27T05:13:22.417Z,15.94
2018-09-27T05:14:22.694Z,15.96
2018-09-27T05:15:22.474Z,15.97
2018-09-27T05:16:37.142Z,16
2018-09-27T05:17:22.762Z,15.92
2018-09-27T05:18:22.795Z,15.93
2018-09-27T05:20:22.877Z,15.89
2018-09-27T05:21:22.620Z,15.94
2018-09-27T05:22:22.865Z,15.94
2018-09-27T05:23:22.633Z,15.94
2018-09-27T05:24:22.653Z,16.02
2018-09-27T05:25:37.600Z,16.01
2018-09-27T05:26:22.954Z,15.87
2018-09-27T05:27:23.570Z,16.01
2018-09-27T05:28:22.999Z,16.08
2018-09-27T05:29:23.021Z,16.07
2018-09-27T05:30:23.041Z,16.05
2018-09-27T05:31:37.724Z,16.05
2018-09-27T05:32:37.745Z,16.07
2018-09-27T05:33:23.106Z,16.02
2018-09-27T05:34:23.129Z,16
2018-09-27T05:35:23.160Z,16.05
2018-09-27T05:37:22.940Z,16.05
2018-09-27T05:38:37.874Z,16.09
2018-09-27T05:39:23.306Z,16.11
2018-09-27T05:40:23.259Z,16.08
2018-09-27T05:41:23.025Z,16.09
2018-09-27T05:42:23.309Z,16.08
2018-09-27T05:43:23.324Z,16.21
2018-09-27T05:44:23.096Z,16.23
2018-09-27T05:45:38.093Z,16.3
2018-09-27T05:46:23.398Z,16.31
2018-09-27T05:47:23.413Z,16.28
2018-09-27T05:48:23.439Z,16.23
2018-09-27T05:49:38.113Z,16.38
2018-09-27T05:50:23.216Z,16.27
2018-09-27T05:51:23.542Z,16.28
2018-09-27T05:52:23.267Z,16.3
2018-09-27T05:53:23.541Z,16.24
2018-09-27T05:54:37.966Z,16.35
2018-09-27T05:55:23.597Z,16.39
2018-09-27T05:57:23.424Z,16.35
2018-09-27T05:58:23.392Z,16.45
2018-09-27T05:59:23.678Z,16.31
2018-09-27T06:00:23.692Z,16.39
2018-09-27T06:01:38.379Z,16.38
2018-09-27T06:02:23.494Z,16.45
2018-09-27T06:03:23.509Z,16.38
2018-09-27T06:04:23.791Z,16.35
2018-09-27T06:05:23.810Z,16.48
2018-09-27T06:06:23.826Z,16.49
2018-09-27T06:07:23.592Z,16.49
2018-09-27T06:08:38.539Z,16.5
2018-09-27T06:09:23.930Z,16.49
2018-09-27T06:10:38.314Z,16.53
2018-09-27T06:11:23.857Z,16.5
2018-09-27T06:12:23.967Z,16.53
2018-09-27T06:13:23.990Z,16.53
2018-09-27T06:14:24.018Z,16.58
2018-09-27T06:15:23.789Z,16.67
2018-09-27T06:16:24.041Z,16.64
2018-09-27T06:17:24.067Z,16.66
2018-09-27T06:18:24.091Z,16.63
2018-09-27T06:20:24.139Z,16.66
2018-09-27T06:21:24.169Z,16.76
2018-09-27T06:22:23.658Z,16.73
2018-09-27T06:24:24.225Z,16.85
2018-09-27T06:25:23.994Z,16.82
2018-09-27T06:26:38.924Z,16.83
2018-09-27T06:27:24.364Z,16.79
2018-09-27T06:29:24.068Z,16.82
2018-09-27T06:30:24.349Z,16.97
2018-09-27T06:31:24.375Z,17.04
2018-09-27T06:32:24.136Z,17.08
2018-09-27T06:33:24.518Z,17.12
2018-09-27T06:34:24.181Z,17.12
2018-09-27T06:35:24.202Z,17.12
2018-09-27T06:36:24.232Z,17.12
2018-09-27T06:37:24.513Z,17.19
2018-09-27T06:38:24.276Z,17.18
2018-09-27T06:40:24.572Z,17.18
2018-09-27T06:41:39.261Z,17.15
2018-09-27T06:42:24.615Z,17.16
2018-09-27T06:43:24.635Z,17.22
2018-09-27T06:44:24.723Z,17.22
2018-09-27T06:45:24.686Z,17.25
2018-09-27T06:46:24.704Z,17.19
2018-09-27T06:47:24.726Z,17.23
2018-09-27T06:48:24.745Z,17.22
2018-09-27T06:49:24.769Z,17.23
2018-09-27T06:50:24.863Z,17.23
2018-09-27T06:51:24.823Z,17.31
2018-09-27T06:52:24.842Z,17.21
2018-09-27T06:53:24.867Z,17.31
2018-09-27T06:54:24.880Z,17.26
2018-09-27T06:55:25.055Z,17.34
2018-09-27T06:56:24.969Z,17.37
2018-09-27T06:57:24.950Z,17.38
2018-09-27T06:58:24.969Z,17.38
2018-09-27T06:59:24.779Z,17.43
2018-09-27T07:00:25.026Z,17.36
2018-09-27T07:01:25.042Z,17.36
2018-09-27T07:02:25.082Z,17.54
2018-09-27T07:03:25.081Z,17.43
2018-09-27T07:04:25.104Z,17.38
2018-09-27T07:05:24.871Z,17.43
2018-09-27T07:06:24.891Z,17.49
2018-09-27T07:07:25.569Z,17.51
2018-09-27T07:08:25.226Z,17.55
2018-09-27T07:09:25.215Z,17.58
2018-09-27T07:10:25.239Z,17.55
2018-09-27T07:11:25.002Z,17.49
2018-09-27T07:12:25.595Z,17.54
2018-09-27T07:13:39.709Z,17.58
2018-09-27T07:14:25.155Z,17.49
2018-09-27T07:15:25.419Z,17.56
2018-09-27T07:16:40.042Z,17.56
2018-09-27T07:17:25.395Z,17.7
2018-09-27T07:18:25.419Z,17.68
2018-09-27T07:19:25.438Z,17.68
2018-09-27T07:20:25.716Z,17.63
2018-09-27T07:21:25.488Z,17.63
2018-09-27T07:22:40.169Z,17.66
2018-09-27T07:23:25.268Z,17.7
2018-09-27T07:24:25.559Z,17.63
2018-09-27T07:25:25.579Z,17.71
2018-09-27T07:26:25.090Z,17.72
2018-09-27T07:27:25.634Z,17.72
2018-09-27T07:28:25.638Z,17.79
2018-09-27T07:29:40.326Z,17.81
2018-09-27T07:31:25.708Z,17.84
2018-09-27T07:33:25.539Z,17.92
2018-09-27T07:34:40.444Z,18
2018-09-27T07:35:25.801Z,18.02
2018-09-27T07:36:25.566Z,18.07
2018-09-27T07:37:25.847Z,18.07
2018-09-27T07:38:25.967Z,18.1
2018-09-27T07:39:25.891Z,18.17
2018-09-27T07:40:25.913Z,18.11
2018-09-27T07:41:25.936Z,18.14
2018-09-27T07:42:25.975Z,18.08
2018-09-27T07:43:25.978Z,18.18
2018-09-27T07:44:26.084Z,18.23
2018-09-27T07:45:40.687Z,18.39
2018-09-27T07:47:26.068Z,18.39
2018-09-27T07:48:40.946Z,18.57
2018-09-27T07:49:26.118Z,18.51
2018-09-27T07:50:26.240Z,18.55
2018-09-27T07:51:26.157Z,18.58
2018-09-27T07:52:26.188Z,18.8
2018-09-27T07:53:26.206Z,18.73
2018-09-27T07:54:26.618Z,18.81
2018-09-27T07:56:26.345Z,18.8
2018-09-27T07:57:26.043Z,18.81
2018-09-27T07:58:26.062Z,18.69
2018-09-27T07:59:26.343Z,18.75
2018-09-27T08:00:26.369Z,18.73
2018-09-27T08:01:41.056Z,18.82
2018-09-27T08:02:26.448Z,18.9
2018-09-27T08:03:26.436Z,19.1
2018-09-27T08:06:26.249Z,19.23
2018-09-27T08:07:26.269Z,19.25
2018-09-27T08:08:26.350Z,19.31
2018-09-27T08:09:26.573Z,19.32
2018-09-27T08:10:26.350Z,19.44
2018-09-27T08:11:26.967Z,19.39
2018-09-27T08:12:26.650Z,19.58
2018-09-27T08:13:26.409Z,19.58
2018-09-27T08:14:26.456Z,19.62
2018-09-27T08:16:41.451Z,19.63
2018-09-27T08:17:26.629Z,19.73
2018-09-27T08:18:26.792Z,19.77
2018-09-27T08:19:26.811Z,20.02
2018-09-27T08:20:27.204Z,20.11
2018-09-27T08:21:41.698Z,20.36
2018-09-27T08:22:26.883Z,20.38
2018-09-27T08:23:41.568Z,20.57
2018-09-27T08:24:26.931Z,20.67
2018-09-27T08:25:26.952Z,20.72
2018-09-27T08:26:27.046Z,20.72
2018-09-27T08:27:26.743Z,20.58
2018-09-27T08:28:27.026Z,20.58
2018-09-27T08:29:26.795Z,20.51
2018-09-27T08:30:41.882Z,20.5
2018-09-27T08:31:27.101Z,20.58
2018-09-27T08:32:27.244Z,20.67
2018-09-27T08:35:27.199Z,20.84
2018-09-27T08:36:26.707Z,20.89
2018-09-27T08:37:27.249Z,20.85
2018-09-27T08:38:27.233Z,20.79
2018-09-27T08:40:27.327Z,20.74
2018-09-27T08:41:27.347Z,20.69
2018-09-27T08:42:27.381Z,20.8
2018-09-27T08:43:27.144Z,20.79
2018-09-27T08:44:27.657Z,20.92
2018-09-27T08:45:28.689Z,21.03
2018-09-27T08:46:27.482Z,21.12
2018-09-27T08:47:27.507Z,21.24
2018-09-27T08:48:42.188Z,21.07
2018-09-27T08:49:27.561Z,21.32
2018-09-27T08:50:27.327Z,21.37
2018-09-27T08:51:42.313Z,21.43
2018-09-27T08:52:27.638Z,21.61
2018-09-27T08:54:27.691Z,21.96
2018-09-27T08:55:27.898Z,22.02
2018-09-27T08:56:27.875Z,21.91
2018-09-27T08:57:42.537Z,21.75
2018-09-27T08:58:27.527Z,21.82
2018-09-27T08:59:27.815Z,21.88
2018-09-27T09:00:27.836Z,21.92
2018-09-27T09:01:27.925Z,22.12
2018-09-27T09:02:27.647Z,22.07
2018-09-27T09:03:27.838Z,22.05
2018-09-27T09:04:42.603Z,22.25
2018-09-27T09:05:27.723Z,22.35
2018-09-27T09:06:27.734Z,22.35
2018-09-27T09:08:27.532Z,22.31
2018-09-27T09:09:27.921Z,22.3
2018-09-27T09:10:28.101Z,22.3
2018-09-27T09:11:28.150Z,22.3
2018-09-27T09:12:42.813Z,22.17
2018-09-27T09:13:28.251Z,22.3
2018-09-27T09:14:28.210Z,22.58
2018-09-27T09:15:28.343Z,22.72
2018-09-27T09:16:27.997Z,22.54
2018-09-27T09:17:28.024Z,22.55
2018-09-27T09:18:28.055Z,22.8
2018-09-27T09:19:28.493Z,22.57
2018-09-27T09:20:43.026Z,22.54
2018-09-27T09:21:28.498Z,22.52
2018-09-27T09:22:28.424Z,22.49
2018-09-27T09:23:28.441Z,22.58
2018-09-27T09:24:28.598Z,22.79
2018-09-27T09:25:28.263Z,22.46
2018-09-27T09:26:28.263Z,22.1
2018-09-27T09:27:28.344Z,22.24
2018-09-27T09:28:28.645Z,22.06
2018-09-27T09:29:28.873Z,22.02
2018-09-27T09:30:43.029Z,22.07
2018-09-27T09:31:28.649Z,22.27
2018-09-27T09:32:28.686Z,22.46
2018-09-27T09:33:28.782Z,22.58
2018-09-27T09:34:28.474Z,22.43
2018-09-27T09:36:43.187Z,22.25
2018-09-27T09:37:28.553Z,22.35
2018-09-27T09:38:28.578Z,22.55
2018-09-27T09:39:28.604Z,22.49
2018-09-27T09:41:28.660Z,22.75
2018-09-27T09:42:28.944Z,22.7
2018-09-27T09:43:43.631Z,22.94
2018-09-27T09:44:43.655Z,23.02
2018-09-27T09:45:29.023Z,23.19
2018-09-27T09:46:29.055Z,23.19
2018-09-27T09:47:29.074Z,23.36
2018-09-27T09:48:29.100Z,23.43
2018-09-27T09:49:29.126Z,23.43
2018-09-27T09:50:29.155Z,23.43
2018-09-27T09:51:43.840Z,23.38
2018-09-27T09:52:29.204Z,23.43
2018-09-27T09:54:29.262Z,23.48
2018-09-27T09:55:29.335Z,23.47
2018-09-27T09:56:29.313Z,23.55
2018-09-27T09:57:29.339Z,23.47
2018-09-27T09:58:29.109Z,23.17
2018-09-27T09:59:29.143Z,23.33
2018-09-27T10:00:29.435Z,23.25
2018-09-27T10:01:29.191Z,23.02
2018-09-27T10:02:29.685Z,22.92
2018-09-27T10:03:29.251Z,22.98
2018-09-27T10:04:29.526Z,22.75
2018-09-27T10:05:29.298Z,22.62
2018-09-27T10:06:29.323Z,22.68
2018-09-27T10:07:29.092Z,22.58
2018-09-27T10:08:29.631Z,22.45
2018-09-27T10:09:29.663Z,22.42
2018-09-27T10:10:29.695Z,22.28
2018-09-27T10:11:29.453Z,22.09
2018-09-27T10:12:29.750Z,22.14
2018-09-27T10:13:29.770Z,22.12
2018-09-27T10:14:29.800Z,22.22
2018-09-27T10:15:29.835Z,22.52
2018-09-27T10:16:29.847Z,22.47
2018-09-27T10:17:29.921Z,22.4
2018-09-27T10:20:29.957Z,22.31
2018-09-27T10:21:30.043Z,22.35
2018-09-27T10:22:30.002Z,22.3
2018-09-27T10:23:44.691Z,22.33
2018-09-27T10:24:30.060Z,22.47
2018-09-27T10:25:30.088Z,22.43
2018-09-27T10:26:30.108Z,22.46
2018-09-27T10:27:30.396Z,22.45
2018-09-27T10:28:30.161Z,22.54
2018-09-27T10:29:30.187Z,22.51
2018-09-27T10:30:29.698Z,22.49
2018-09-27T10:31:30.364Z,22.51
2018-09-27T10:32:30.265Z,22.51
2018-09-27T10:33:30.296Z,22.43
2018-09-27T10:34:30.469Z,22.54
2018-09-27T10:35:30.087Z,22.46
2018-09-27T10:37:30.391Z,22.75
2018-09-27T10:38:30.414Z,22.72
2018-09-27T10:39:45.104Z,22.58
2018-09-27T10:40:30.478Z,22.43
2018-09-27T10:41:30.489Z,22.31
2018-09-27T10:42:30.522Z,22.49
2018-09-27T10:44:30.568Z,22.68
2018-09-27T10:45:30.601Z,22.65
2018-09-27T10:46:30.363Z,22.79
2018-09-27T10:47:45.307Z,22.8
2018-09-27T10:48:30.413Z,22.79
2018-09-27T10:49:30.693Z,22.94
2018-09-27T10:50:30.721Z,22.97
2018-09-27T10:51:31.148Z,22.72
2018-09-27T10:52:30.821Z,22.82
2018-09-27T10:53:30.793Z,22.6
2018-09-27T10:54:30.824Z,22.67
2018-09-27T10:55:45.514Z,22.64
2018-09-27T10:57:31.000Z,22.62
2018-09-27T10:58:30.922Z,22.68
2018-09-27T10:59:31.129Z,22.75
2018-09-27T11:00:30.716Z,22.68
2018-09-27T11:01:30.997Z,22.57
2018-09-27T11:02:31.030Z,22.6
2018-09-27T11:03:30.788Z,22.49
2018-09-27T11:04:30.556Z,22.4
2018-09-27T11:05:45.591Z,22.42
2018-09-27T11:06:31.121Z,22.52
2018-09-27T11:07:31.147Z,22.61
2018-09-27T11:08:30.915Z,22.7
2018-09-27T11:09:31.195Z,22.52
2018-09-27T11:10:30.963Z,22.58
2018-09-27T11:11:45.681Z,22.67
2018-09-27T11:12:31.013Z,22.57
2018-09-27T11:13:31.301Z,22.39
2018-09-27T11:15:31.343Z,22.58
2018-09-27T11:17:31.157Z,22.49
2018-09-27T11:18:31.422Z,22.45
2018-09-27T11:19:31.448Z,22.3
2018-09-27T11:20:46.281Z,22.36
2018-09-27T11:21:31.234Z,22.36
2018-09-27T11:22:31.521Z,22.51
2018-09-27T11:24:31.570Z,22.77
2018-09-27T11:25:31.598Z,22.77
2018-09-27T11:26:46.288Z,22.8
2018-09-27T11:27:31.496Z,22.75
2018-09-27T11:28:31.672Z,22.88
2018-09-27T11:29:31.700Z,22.95
2018-09-27T11:30:31.738Z,22.92
2018-09-27T11:31:31.745Z,22.94
2018-09-27T11:32:31.776Z,22.94
2018-09-27T11:33:31.793Z,22.86
2018-09-27T11:34:31.562Z,22.75
2018-09-27T11:35:31.844Z,22.67
2018-09-27T11:36:32.124Z,22.68
2018-09-27T11:37:31.895Z,22.72
2018-09-27T11:38:31.741Z,22.65
2018-09-27T11:39:31.944Z,22.7
2018-09-27T11:40:31.709Z,22.92
2018-09-27T11:42:32.299Z,22.8
2018-09-27T11:43:32.044Z,22.76
2018-09-27T11:44:32.071Z,22.82
2018-09-27T11:45:32.103Z,22.7
2018-09-27T11:46:32.136Z,22.7
2018-09-27T11:47:32.305Z,22.7
2018-09-27T11:48:31.911Z,22.79
2018-09-27T11:49:32.756Z,22.95
2018-09-27T11:50:32.215Z,23.02
2018-09-27T11:51:32.240Z,23
2018-09-27T11:52:32.268Z,23
2018-09-27T11:53:32.297Z,22.94
2018-09-27T11:54:32.322Z,22.98
2018-09-27T11:55:31.822Z,23.01
2018-09-27T11:56:32.367Z,23.07
2018-09-27T11:57:32.389Z,23.15
2018-09-27T11:59:32.449Z,23.27
2018-09-27T12:00:32.678Z,23.22
2018-09-27T12:01:32.387Z,23.25
2018-09-27T12:02:32.514Z,23.22
2018-09-27T12:03:32.536Z,23.17
2018-09-27T12:04:32.567Z,23.05
2018-09-27T12:05:32.334Z,23.33
2018-09-27T12:06:32.464Z,23.19
2018-09-27T12:07:32.767Z,23.32
2018-09-27T12:08:47.322Z,23.35
2018-09-27T12:09:32.428Z,23.27
2018-09-27T12:10:32.712Z,23.4
2018-09-27T12:11:32.736Z,23.4
2018-09-27T12:12:32.767Z,23.42
2018-09-27T12:13:33.142Z,23.35
2018-09-27T12:14:47.674Z,23.31
2018-09-27T12:15:32.940Z,23.28
2018-09-27T12:16:32.347Z,23.25
2018-09-27T12:17:33.094Z,23.25
2018-09-27T12:18:32.913Z,23.23
2018-09-27T12:19:33.077Z,23.27
2018-09-27T12:20:32.965Z,23.32
2018-09-27T12:21:32.727Z,23.28
2018-09-27T12:22:47.672Z,23.31
2018-09-27T12:23:33.040Z,23.25
2018-09-27T12:24:47.464Z,23.25
2018-09-27T12:25:33.334Z,23.25
2018-09-27T12:26:33.116Z,23.35
2018-09-27T12:27:33.135Z,23.31
2018-09-27T12:28:33.265Z,23.32
2018-09-27T12:29:33.190Z,23.01
2018-09-27T12:30:47.613Z,23.2
2018-09-27T12:31:33.241Z,23.23
2018-09-27T12:32:33.257Z,23.28
2018-09-27T12:33:33.027Z,23.36
2018-09-27T12:35:33.332Z,23.65
2018-09-27T12:36:33.619Z,23.54
2018-09-27T12:37:33.385Z,23.6
2018-09-27T12:38:33.734Z,23.4
2018-09-27T12:39:33.249Z,23.39
2018-09-27T12:40:47.863Z,23.39
2018-09-27T12:41:33.765Z,23.31
2018-09-27T12:42:33.810Z,23.32
2018-09-27T12:43:33.537Z,23.32
2018-09-27T12:44:33.557Z,23.23
2018-09-27T12:45:34.139Z,23.31
2018-09-27T12:46:48.451Z,23.42
2018-09-27T12:47:33.632Z,23.46
2018-09-27T12:48:34.164Z,23.46
2018-09-27T12:49:33.687Z,23.48
2018-09-27T12:50:33.566Z,23.48
2018-09-27T12:51:33.828Z,23.33
2018-09-27T12:52:34.344Z,23.36
2018-09-27T12:53:33.781Z,23.27
2018-09-27T12:54:33.811Z,23.31
2018-09-27T12:55:33.576Z,23.47
2018-09-27T12:57:33.624Z,23.47
2018-09-27T12:58:33.784Z,23.46
2018-09-27T12:59:33.951Z,23.48
2018-09-27T13:00:33.711Z,23.4
2018-09-27T13:01:48.894Z,23.35
2018-09-27T13:02:33.987Z,23.42
2018-09-27T13:03:34.043Z,23.57
2018-09-27T13:04:34.064Z,23.57
2018-09-27T13:05:34.082Z,23.57
2018-09-27T13:06:34.116Z,23.7
2018-09-27T13:07:34.190Z,23.6
2018-09-27T13:08:34.336Z,23.68
2018-09-27T13:09:34.484Z,23.68
2018-09-27T13:10:33.689Z,23.72
2018-09-27T13:11:48.657Z,23.61
2018-09-27T13:12:34.372Z,23.6
2018-09-27T13:14:34.452Z,23.57
2018-09-27T13:15:34.333Z,23.51
2018-09-27T13:16:34.368Z,23.55
2018-09-27T13:17:34.513Z,23.54
2018-09-27T13:18:34.404Z,23.43
2018-09-27T13:19:49.286Z,23.4
2018-09-27T13:20:34.573Z,23.43
2018-09-27T13:21:34.335Z,23.35
2018-09-27T13:22:34.505Z,23.27
2018-09-27T13:23:34.535Z,23.25
2018-09-27T13:24:34.774Z,23.2
2018-09-27T13:25:49.274Z,23.2
2018-09-27T13:26:34.816Z,23.22
2018-09-27T13:27:34.632Z,23.16
2018-09-27T13:28:34.834Z,23.16
2018-09-27T13:29:34.690Z,23.31
2018-09-27T13:30:34.707Z,23.25
2018-09-27T13:31:34.474Z,23.31
2018-09-27T13:32:34.757Z,23.35
2018-09-27T13:33:49.201Z,23.5
2018-09-27T13:34:34.807Z,23.57
2018-09-27T13:35:34.832Z,23.47
2018-09-27T13:36:34.339Z,23.42
2018-09-27T13:37:34.882Z,23.43
2018-09-27T13:38:34.646Z,23.38
2018-09-27T13:39:34.936Z,23.4
2018-09-27T13:40:49.618Z,23.42
2018-09-27T13:41:34.976Z,23.35
2018-09-27T13:42:35.005Z,23.33
2018-09-27T13:43:35.032Z,23.33
2018-09-27T13:44:35.061Z,23.36
2018-09-27T13:45:35.082Z,23.46
2018-09-27T13:46:35.407Z,23.51
2018-09-27T13:47:35.135Z,23.5